sensor_id;sensor_type;location;lat;lon;timestamp;pressure;altitude;pressure_sealevel;temperature
49557;BMP280;35462;45.048;7.666;2023-07-29T00:01:54;98656.44;;;27.31
49557;BMP280;35462;45.048;7.666;2023-07-29T00:17:13;98661.28;;;27.26
49557;BMP280;35462;45.048;7.666;2023-07-29T00:32:32;98647.03;;;27.07
49557;BMP280;35462;45.048;7.666;2023-07-29T00:47:52;98637.38;;;27.06
49557;BMP280;35462;45.048;7.666;2023-07-29T01:03:12;98668.81;;;26.75
49557;BMP280;35462;45.048;7.666;2023-07-29T01:18:36;98662.38;;;26.60
49557;BMP280;35462;45.048;7.666;2023-07-29T01:34:05;98662.69;;;26.57
49557;BMP280;35462;45.048;7.666;2023-07-29T01:49:26;98665.31;;;26.62
49557;BMP280;35462;45.048;7.666;2023-07-29T02:04:45;98647.41;;;26.54
49557;BMP280;35462;45.048;7.666;2023-07-29T02:20:11;98634.47;;;26.28
49557;BMP280;35462;45.048;7.666;2023-07-29T02:35:30;98647.38;;;26.22
49557;BMP280;35462;45.048;7.666;2023-07-29T02:50:50;98654.19;;;26.29
49557;BMP280;35462;45.048;7.666;2023-07-29T03:06:13;98658.53;;;26.19
49557;BMP280;35462;45.048;7.666;2023-07-29T03:21:32;98670.13;;;26.01
49557;BMP280;35462;45.048;7.666;2023-07-29T03:36:52;98676.13;;;25.76
49557;BMP280;35462;45.048;7.666;2023-07-29T03:52:11;98668.19;;;25.59
49557;BMP280;35462;45.048;7.666;2023-07-29T04:07:31;98679.16;;;25.67
49557;BMP280;35462;45.048;7.666;2023-07-29T04:22:50;98698.47;;;25.63
49557;BMP280;35462;45.048;7.666;2023-07-29T04:38:09;98712.72;;;25.69
49557;BMP280;35462;45.048;7.666;2023-07-29T04:53:29;98712.16;;;25.76
49557;BMP280;35462;45.048;7.666;2023-07-29T05:08:48;98713.16;;;25.73
49557;BMP280;35462;45.048;7.666;2023-07-29T05:24:08;98704.97;;;25.79
49557;BMP280;35462;45.048;7.666;2023-07-29T05:39:27;98718.38;;;25.95
49557;BMP280;35462;45.048;7.666;2023-07-29T05:54:47;98729.06;;;26.24
49557;BMP280;35462;45.048;7.666;2023-07-29T06:10:06;98727.69;;;27.04
49557;BMP280;35462;45.048;7.666;2023-07-29T06:25:27;98751.72;;;29.23
49557;BMP280;35462;45.048;7.666;2023-07-29T06:40:49;98745.63;;;31.64
49557;BMP280;35462;45.048;7.666;2023-07-29T06:56:08;98751.19;;;32.51
49557;BMP280;35462;45.048;7.666;2023-07-29T07:11:28;98745.81;;;33.95
49557;BMP280;35462;45.048;7.666;2023-07-29T07:26:47;98738.75;;;36.99
49557;BMP280;35462;45.048;7.666;2023-07-29T07:42:07;98749.59;;;34.26
49557;BMP280;35462;45.048;7.666;2023-07-29T07:57:27;98738.25;;;33.27
49557;BMP280;35462;45.048;7.666;2023-07-29T08:12:46;98752.22;;;33.55
49557;BMP280;35462;45.048;7.666;2023-07-29T08:28:05;98736.00;;;34.28
49557;BMP280;35462;45.048;7.666;2023-07-29T08:43:29;98733.34;;;34.66
49557;BMP280;35462;45.048;7.666;2023-07-29T08:58:51;98711.66;;;35.07
49557;BMP280;35462;45.048;7.666;2023-07-29T09:14:11;98719.38;;;34.45
49557;BMP280;35462;45.048;7.666;2023-07-29T09:29:31;98717.09;;;34.51
49557;BMP280;35462;45.048;7.666;2023-07-29T09:44:51;98703.63;;;34.45
49557;BMP280;35462;45.048;7.666;2023-07-29T10:00:11;98702.91;;;34.09
49557;BMP280;35462;45.048;7.666;2023-07-29T10:15:31;98689.38;;;33.95
49557;BMP280;35462;45.048;7.666;2023-07-29T10:30:51;98685.25;;;33.86
49557;BMP280;35462;45.048;7.666;2023-07-29T10:46:21;98663.25;;;33.50
49557;BMP280;35462;45.048;7.666;2023-07-29T11:01:43;98672.81;;;33.59
49557;BMP280;35462;45.048;7.666;2023-07-29T11:17:04;98670.16;;;33.08
49557;BMP280;35462;45.048;7.666;2023-07-29T11:32:25;98654.91;;;32.81
49557;BMP280;35462;45.048;7.666;2023-07-29T11:47:45;98639.13;;;32.82
49557;BMP280;35462;45.048;7.666;2023-07-29T12:03:04;98626.88;;;32.66
49557;BMP280;35462;45.048;7.666;2023-07-29T12:18:30;98612.81;;;32.62
49557;BMP280;35462;45.048;7.666;2023-07-29T12:33:56;98604.19;;;32.65
49557;BMP280;35462;45.048;7.666;2023-07-29T12:49:16;98581.00;;;32.59
49557;BMP280;35462;45.048;7.666;2023-07-29T13:04:35;98559.72;;;32.50
49557;BMP280;35462;45.048;7.666;2023-07-29T13:19:54;98542.28;;;32.38
49557;BMP280;35462;45.048;7.666;2023-07-29T13:35:14;98528.06;;;32.32
49557;BMP280;35462;45.048;7.666;2023-07-29T13:50:33;98520.81;;;32.27
49557;BMP280;35462;45.048;7.666;2023-07-29T14:05:53;98518.50;;;32.41
49557;BMP280;35462;45.048;7.666;2023-07-29T14:21:12;98514.28;;;32.23
49557;BMP280;35462;45.048;7.666;2023-07-29T14:36:35;98515.06;;;32.16
49557;BMP280;35462;45.048;7.666;2023-07-29T14:51:54;98498.06;;;32.17
49557;BMP280;35462;45.048;7.666;2023-07-29T15:07:14;98491.34;;;32.11
49557;BMP280;35462;45.048;7.666;2023-07-29T15:22:33;98482.25;;;32.08
49557;BMP280;35462;45.048;7.666;2023-07-29T15:37:53;98470.16;;;31.95
49557;BMP280;35462;45.048;7.666;2023-07-29T15:53:12;98444.88;;;31.96
49557;BMP280;35462;45.048;7.666;2023-07-29T16:08:31;98430.38;;;31.86
49557;BMP280;35462;45.048;7.666;2023-07-29T16:23:51;98418.91;;;31.80
49557;BMP280;35462;45.048;7.666;2023-07-29T16:39:12;98428.19;;;31.68
49557;BMP280;35462;45.048;7.666;2023-07-29T16:54:31;98420.41;;;31.57
49557;BMP280;35462;45.048;7.666;2023-07-29T17:09:51;98429.41;;;31.50
49557;BMP280;35462;45.048;7.666;2023-07-29T17:25:11;98433.75;;;31.04
49557;BMP280;35462;45.048;7.666;2023-07-29T17:40:30;98443.59;;;31.07
49557;BMP280;35462;45.048;7.666;2023-07-29T17:55:50;98436.41;;;30.88
49557;BMP280;35462;45.048;7.666;2023-07-29T18:11:09;98450.13;;;30.73
49557;BMP280;35462;45.048;7.666;2023-07-29T18:26:31;98439.84;;;30.49
49557;BMP280;35462;45.048;7.666;2023-07-29T18:41:50;98430.00;;;30.46
49557;BMP280;35462;45.048;7.666;2023-07-29T18:57:09;98460.47;;;30.43
49557;BMP280;35462;45.048;7.666;2023-07-29T19:12:29;98494.53;;;30.49
49557;BMP280;35462;45.048;7.666;2023-07-29T19:27:48;98545.59;;;30.47
49557;BMP280;35462;45.048;7.666;2023-07-29T19:43:08;98633.91;;;29.90
49557;BMP280;35462;45.048;7.666;2023-07-29T19:58:28;98587.09;;;28.93
49557;BMP280;35462;45.048;7.666;2023-07-29T20:13:47;98645.75;;;28.59
49557;BMP280;35462;45.048;7.666;2023-07-29T20:29:06;98626.44;;;28.16
49557;BMP280;35462;45.048;7.666;2023-07-29T20:44:27;98697.22;;;27.96
49557;BMP280;35462;45.048;7.666;2023-07-29T20:59:46;98679.75;;;27.79
49557;BMP280;35462;45.048;7.666;2023-07-29T21:15:07;98636.34;;;27.60
49557;BMP280;35462;45.048;7.666;2023-07-29T21:30:29;98622.22;;;27.49
49557;BMP280;35462;45.048;7.666;2023-07-29T21:45:48;98601.50;;;27.33
49557;BMP280;35462;45.048;7.666;2023-07-29T22:01:08;98565.31;;;27.25
49557;BMP280;35462;45.048;7.666;2023-07-29T22:16:27;98597.13;;;27.17
49557;BMP280;35462;45.048;7.666;2023-07-29T22:31:47;98532.94;;;27.01
49557;BMP280;35462;45.048;7.666;2023-07-29T22:47:06;98533.94;;;26.98
49557;BMP280;35462;45.048;7.666;2023-07-29T23:02:26;98555.16;;;26.87
49557;BMP280;35462;45.048;7.666;2023-07-29T23:17:45;98591.47;;;26.76
49557;BMP280;35462;45.048;7.666;2023-07-29T23:33:05;98605.81;;;26.59
49557;BMP280;35462;45.048;7.666;2023-07-29T23:48:24;98608.88;;;26.55
